Time;durP1;ratioP1;P1;durP2;ratioP2;P2;SDS_P1;SDS_P2;PMS_P1;PMS_P2;Temp;Humidity;BMP_temperature;BMP_pressure;BME280_temperature;BME280_humidity;BME280_pressure;Samples;Min_cycle;Max_cycle;Signal;HPM_P1;HPM_P2
2022/09/06 00:00:31;;;;;;;;;29.60;24.20;;;;;24.56;52.17;99838.22;5068940;28;9766;-77
2022/09/06 00:03:00;;;;;;;;;23.20;23.20;;;;;24.56;52.30;99840.03;5068629;28;8962;-80
2022/09/06 00:05:29;;;;;;;;;24.80;23.00;;;;;24.48;50.98;99840.41;5068123;28;9015;-79
2022/09/06 00:07:58;;;;;;;;;21.80;19.60;;;;;24.38;50.81;99840.03;5038275;28;9646;-78
2022/09/06 00:10:27;;;;;;;;;20.80;20.60;;;;;24.39;50.57;99838.25;5089484;28;8824;-80
2022/09/06 00:12:59;;;;;;;;;22.60;21.00;;;;;24.41;50.33;99837.22;5087802;28;8871;-82
2022/09/06 00:15:30;;;;;;;;;14.80;14.40;;;;;24.41;50.06;99839.03;5088051;28;8835;-79
2022/09/06 00:17:59;;;;;;;;;20.20;19.60;;;;;24.40;50.30;99834.63;5089098;28;8874;-81
2022/09/06 00:20:28;;;;;;;;;22.60;20.80;;;;;24.44;50.69;99838.84;5088174;28;8874;-78
2022/09/06 00:22:58;;;;;;;;;17.20;17.20;;;;;24.45;50.35;99836.09;5089057;28;8856;-79
2022/09/06 00:25:27;;;;;;;;;20.20;20.20;;;;;24.43;50.06;99835.31;5084100;28;8872;-78
2022/09/06 00:27:57;;;;;;;;;21.60;19.00;;;;;24.38;49.67;99834.69;5069304;28;8870;-79
2022/09/06 00:30:26;;;;;;;;;19.80;18.80;;;;;24.35;49.70;99837.53;5050883;28;8946;-78
2022/09/06 00:32:57;;;;;;;;;16.80;16.40;;;;;24.40;50.38;99827.47;5070340;28;8850;-79
2022/09/06 00:35:27;;;;;;;;;24.60;23.60;;;;;24.40;51.35;99831.97;5070694;28;8853;-79
2022/09/06 00:38:00;;;;;;;;;24.20;21.80;;;;;24.44;51.55;99830.84;5068513;28;8835;-79
2022/09/06 00:40:33;;;;;;;;;20.00;20.00;;;;;24.39;50.91;99836.44;5066336;28;8866;-79
2022/09/06 00:43:02;;;;;;;;;15.00;14.40;;;;;23.99;50.84;99833.19;5087274;28;8928;-79
2022/09/06 00:45:32;;;;;;;;;20.60;20.20;;;;;23.86;51.22;99834.75;5086814;28;8860;-79
2022/09/06 00:48:04;;;;;;;;;18.00;16.40;;;;;23.68;51.59;99839.16;5068163;28;8887;-79
2022/09/06 00:50:34;;;;;;;;;26.80;26.80;;;;;23.85;53.23;99835.69;5067236;28;8853;-79
2022/09/06 00:53:02;;;;;;;;;27.20;24.40;;;;;23.99;53.40;99842.97;5051800;28;8858;-78
2022/09/06 00:55:31;;;;;;;;;26.40;23.40;;;;;24.05;53.37;99843.53;5068065;28;8910;-79
2022/09/06 00:58:00;;;;;;;;;27.20;26.20;;;;;24.12;52.95;99847.59;5068640;28;8874;-79
2022/09/06 01:00:28;;;;;;;;;24.40;23.40;;;;;24.16;52.97;99842.09;5068184;28;8858;-79
2022/09/06 01:02:56;;;;;;;;;27.80;27.20;;;;;24.21;53.09;99845.38;5065970;28;8870;-79
2022/09/06 01:05:38;;;;;;;;;28.60;28.20;;;;;24.28;52.92;99847.66;5067445;28;8830;-79
2022/09/06 01:08:16;;;;;;;;;28.80;28.80;;;;;24.27;53.22;99853.06;5068642;28;8858;-78
2022/09/06 01:11:07;;;;;;;;;24.20;24.00;;;;;24.24;52.26;99846.09;5068822;28;8838;-79
2022/09/06 01:13:46;;;;;;;;;23.40;22.40;;;;;23.92;53.19;99851.28;5067300;28;8846;-81
2022/09/06 01:16:29;;;;;;;;;29.60;28.80;;;;;23.98;52.99;99855.44;5066196;28;8824;-79
2022/09/06 01:19:22;;;;;;;;;28.20;27.80;;;;;24.07;53.28;99844.31;5092612;28;8859;-79
2022/09/06 01:22:00;;;;;;;;;29.60;28.60;;;;;24.04;53.90;99855.09;5091292;28;8889;-78
2022/09/06 01:25:07;;;;;;;;;29.20;26.20;;;;;24.18;53.61;99856.19;5073773;28;9639;-80
2022/09/06 01:28:18;;;;;;;;;27.00;24.80;;;;;24.16;53.60;99855.41;5069752;28;8864;-80
2022/09/06 01:30:51;;;;;;;;;29.60;27.00;;;;;24.04;54.29;99848.94;5037111;28;8860;-81
2022/09/06 01:33:29;;;;;;;;;27.80;27.40;;;;;23.71;54.66;99857.66;5013526;28;8864;-79
2022/09/06 01:36:01;;;;;;;;;27.60;27.60;;;;;23.68;54.63;99866.66;5030296;28;9669;-78
2022/09/06 01:38:30;;;;;;;;;31.60;28.20;;;;;23.69;54.35;99871.06;5014242;28;8868;-80
2022/09/06 01:40:58;;;;;;;;;24.80;22.80;;;;;23.63;54.64;99871.38;5033226;28;8824;-77
2022/09/06 01:43:31;;;;;;;;;31.40;29.00;;;;;23.67;55.20;99867.59;5031390;28;8999;-78
2022/09/06 01:46:07;;;;;;;;;29.60;27.40;;;;;23.71;55.44;99860.34;5017731;28;8884;-77
2022/09/06 01:48:46;;;;;;;;;28.40;28.20;;;;;23.72;55.12;99854.06;4986191;28;9740;-77
2022/09/06 01:51:28;;;;;;;;;32.40;31.00;;;;;23.63;55.56;99851.84;5024647;28;10007;-79
2022/09/06 01:54:12;;;;;;;;;34.00;31.40;;;;;23.27;56.82;99856.25;5012499;28;8880;-77
2022/09/06 01:56:50;;;;;;;;;26.00;25.80;;;;;23.36;56.38;99854.91;5028858;28;8845;-78
2022/09/06 01:59:34;;;;;;;;;28.60;27.20;;;;;23.44;56.00;99858.09;4996084;28;8867;-78
2022/09/06 02:02:08;;;;;;;;;30.80;29.60;;;;;23.43;56.15;99859.00;5041769;28;8853;-77
2022/09/06 02:04:44;;;;;;;;;29.80;28.40;;;;;23.49;56.42;99855.19;5022532;28;9031;-79
2022/09/06 02:07:19;;;;;;;;;33.20;30.20;;;;;23.38;57.13;99850.38;5058118;28;8846;-79
2022/09/06 02:09:53;;;;;;;;;30.20;30.20;;;;;23.35;56.45;99854.06;5071786;28;8874;-78
2022/09/06 02:12:24;;;;;;;;;31.20;27.80;;;;;23.31;55.96;99848.97;5052950;28;8870;-77
2022/09/06 02:14:58;;;;;;;;;32.00;28.20;;;;;23.35;55.66;99853.22;5071639;28;8858;-80
2022/09/06 02:17:32;;;;;;;;;25.40;24.40;;;;;23.33;55.49;99853.28;5070989;28;8858;-77
2022/09/06 02:20:06;;;;;;;;;35.20;32.20;;;;;23.39;56.26;99859.25;5070726;28;8854;-78
2022/09/06 02:22:39;;;;;;;;;35.25;31.00;;;;;23.45;56.66;99854.47;5071577;28;8858;-79
2022/09/06 02:25:13;;;;;;;;;33.40;29.80;;;;;23.50;56.34;99854.28;5071267;28;8926;-79
2022/09/06 02:27:41;;;;;;;;;30.00;30.00;;;;;23.50;56.21;99855.13;5071034;28;8947;-79
2022/09/06 02:30:12;;;;;;;;;35.80;30.80;;;;;23.54;56.13;99862.00;5069301;28;8853;-79
2022/09/06 02:32:48;;;;;;;;;37.80;33.80;;;;;23.56;56.27;99851.31;5051688;28;9704;-78
2022/09/06 02:35:17;;;;;;;;;33.40;30.00;;;;;23.49;56.46;99850.72;5071392;28;8858;-80
2022/09/06 02:37:46;;;;;;;;;33.40;31.80;;;;;23.47;56.46;99851.75;5070613;28;8862;-78
2022/09/06 02:40:15;;;;;;;;;30.40;30.20;;;;;23.51;56.28;99853.31;5071194;28;8835;-77
2022/09/06 02:42:44;;;;;;;;;32.40;28.60;;;;;23.48;56.02;99851.69;5072500;28;8850;-79
2022/09/06 02:45:14;;;;;;;;;32.00;30.40;;;;;23.49;56.14;99849.88;5071617;28;8896;-78
2022/09/06 02:47:42;;;;;;;;;31.00;30.00;;;;;23.49;56.15;99847.22;5070821;28;8843;-79
2022/09/06 02:50:14;;;;;;;;;28.80;27.80;;;;;23.50;56.11;99843.63;5070630;28;8950;-81
2022/09/06 02:52:42;;;;;;;;;31.80;31.20;;;;;23.47;56.06;99844.63;5069666;28;8851;-79
2022/09/06 02:55:11;;;;;;;;;30.00;26.60;;;;;23.43;55.92;99840.38;5070333;28;8873;-80
2022/09/06 02:57:40;;;;;;;;;28.20;27.20;;;;;23.40;55.96;99848.50;5102940;28;8873;-80
2022/09/06 03:00:10;;;;;;;;;30.80;30.00;;;;;23.34;56.19;99839.03;5070662;28;9003;-79
2022/09/06 03:02:39;;;;;;;;;34.20;32.00;;;;;23.29;56.56;99843.72;5038827;28;8864;-80
2022/09/06 03:05:09;;;;;;;;;35.80;30.80;;;;;23.29;56.65;99845.50;5089357;28;9605;-79
2022/09/06 03:07:37;;;;;;;;;34.40;33.20;;;;;23.30;56.71;99848.09;5090846;28;8970;-80
2022/09/06 03:10:06;;;;;;;;;31.00;29.80;;;;;23.30;56.90;99839.25;5071629;28;8855;-78
2022/09/06 03:12:35;;;;;;;;;35.00;29.60;;;;;23.31;56.64;99833.88;5089210;28;8836;-78
2022/09/06 03:15:04;;;;;;;;;32.60;30.80;;;;;23.33;56.69;99832.00;5089138;28;8859;-79
2022/09/06 03:17:33;;;;;;;;;33.00;30.80;;;;;23.37;56.53;99832.72;5018399;28;8834;-79
2022/09/06 03:20:04;;;;;;;;;30.60;30.20;;;;;23.40;56.42;99840.53;5034851;28;8862;-82
2022/09/06 03:22:33;;;;;;;;;38.00;32.80;;;;;23.38;56.63;99837.06;5069570;28;8873;-78
2022/09/06 03:25:01;;;;;;;;;36.20;32.40;;;;;23.38;56.73;99838.88;5069843;28;8858;-79
2022/09/06 03:27:30;;;;;;;;;38.00;34.60;;;;;23.39;56.70;99841.47;5084525;28;8864;-79
2022/09/06 03:29:58;;;;;;;;;37.60;33.00;;;;;23.41;56.55;99834.28;5089436;28;8848;-78
2022/09/06 03:32:26;;;;;;;;;34.60;31.60;;;;;23.49;56.17;99839.22;5076145;28;8866;-80
2022/09/06 03:34:55;;;;;;;;;36.00;33.25;;;;;23.47;56.54;99838.44;5068875;28;8872;-79
2022/09/06 03:37:25;;;;;;;;;37.60;33.40;;;;;23.47;56.56;99836.63;5079186;28;8884;-76
2022/09/06 03:39:53;;;;;;;;;38.75;35.00;;;;;23.45;56.74;99838.50;5092625;28;8976;-80
2022/09/06 03:42:25;;;;;;;;;39.50;34.75;;;;;23.47;56.68;99823.31;5071784;28;8892;-78
2022/09/06 03:44:53;;;;;;;;;33.50;32.00;;;;;23.48;56.89;99834.84;5105901;28;8839;-78
2022/09/06 03:47:22;;;;;;;;;36.50;33.75;;;;;23.51;56.97;99834.69;5102057;28;8873;-77
2022/09/06 03:49:51;;;;;;;;;70.50;56.00;;;;;23.49;57.04;99832.09;5106597;28;9665;-78
2022/09/06 03:52:19;;;;;;;;;55.25;45.50;;;;;23.46;57.34;99828.72;5088485;28;8952;-80
2022/09/06 03:54:49;;;;;;;;;42.00;36.00;;;;;23.46;57.12;99826.94;5070295;28;8885;-76
2022/09/06 03:57:17;;;;;;;;;38.20;34.20;;;;;23.51;56.89;99821.38;5087296;28;9438;-79
2022/09/06 03:59:46;;;;;;;;;35.80;33.80;;;;;23.52;56.69;99831.09;5087389;28;8849;-79
2022/09/06 04:02:15;;;;;;;;;36.40;33.80;;;;;23.52;56.79;99823.09;5102521;28;8839;-79
2022/09/06 04:04:43;;;;;;;;;36.75;34.25;;;;;23.54;56.98;99823.91;5090587;28;8851;-80
2022/09/06 04:07:12;;;;;;;;;37.80;33.80;;;;;23.53;56.69;99823.03;5107742;28;8855;-78
2022/09/06 04:09:40;;;;;;;;;39.75;35.50;;;;;23.54;56.66;99818.56;5089909;28;8851;-78
2022/09/06 04:12:10;;;;;;;;;37.50;35.00;;;;;23.56;56.74;99822.00;5123931;27;8836;-80
2022/09/06 04:14:39;;;;;;;;;36.75;34.50;;;;;23.57;56.55;99826.38;5089393;28;8946;-77
2022/09/06 04:17:07;;;;;;;;;34.40;33.20;;;;;23.58;56.72;99825.47;5122616;27;8839;-80
2022/09/06 04:19:36;;;;;;;;;30.60;30.20;;;;;23.61;56.60;99824.44;5070081;28;8868;-79
2022/09/06 04:22:04;;;;;;;;;32.50;29.00;;;;;23.61;56.70;99813.78;5105035;28;9601;-79
2022/09/06 04:24:33;;;;;;;;;40.25;35.00;;;;;23.64;56.59;99819.81;5070694;28;8855;-77
2022/09/06 04:27:01;;;;;;;;;25.25;19.25;;;;;23.68;56.29;99824.03;5087880;28;8856;-78
2022/09/06 04:29:31;;;;;;;;;41.50;35.50;;;;;23.72;56.35;99822.97;5083325;28;8822;-78
2022/09/06 04:31:59;;;;;;;;;85.75;79.50;;;;;23.73;56.19;99826.50;5090254;27;8851;-79
2022/09/06 04:34:28;;;;;;;;;57.75;47.75;;;;;23.67;56.31;99827.66;5095563;28;9970;-78
2022/09/06 04:36:57;;;;;;;;;43.00;37.00;;;;;23.68;56.47;99821.38;5053345;28;8978;-78
2022/09/06 04:39:25;;;;;;;;;42.00;34.75;;;;;23.60;56.55;99818.25;5038988;28;8871;-79
2022/09/06 04:41:54;;;;;;;;;45.25;37.25;;;;;23.66;56.69;99830.41;5072136;28;8834;-78
2022/09/06 04:44:23;;;;;;;;;37.00;33.75;;;;;23.66;56.36;99823.25;5066384;28;8909;-80
2022/09/06 04:47:04;;;;;;;;;39.75;34.75;;;;;23.68;57.10;99826.72;5032996;28;9017;-79
2022/09/06 04:49:37;;;;;;;;;43.00;36.00;;;;;23.61;56.76;99822.66;5066529;28;8924;-78
2022/09/06 04:52:05;;;;;;;;;42.25;36.00;;;;;23.63;56.87;99820.78;5049573;28;8925;-80
2022/09/06 04:54:34;;;;;;;;;37.75;34.25;;;;;23.66;56.82;99825.06;5050372;28;8860;-82
2022/09/06 04:57:03;;;;;;;;;31.80;30.40;;;;;23.72;56.75;99822.97;5066039;28;8917;-78
2022/09/06 04:59:32;;;;;;;;;38.00;32.80;;;;;23.75;56.41;99821.94;5049265;28;8864;-78
2022/09/06 05:02:02;;;;;;;;;39.00;33.20;;;;;23.74;56.12;99826.41;5049059;28;8840;-80
2022/09/06 05:04:31;;;;;;;;;35.40;33.40;;;;;23.59;56.65;99829.84;5065869;28;8856;-80
2022/09/06 05:07:03;;;;;;;;;40.50;35.00;;;;;23.32;57.76;99832.06;5060884;28;8856;-79
2022/09/06 05:09:32;;;;;;;;;37.40;34.60;;;;;23.11;58.42;99839.28;5048566;28;8859;-79
2022/09/06 05:12:01;;;;;;;;;36.25;32.75;;;;;23.41;57.29;99841.41;5065392;28;8855;-81
2022/09/06 05:14:30;;;;;;;;;38.40;33.80;;;;;23.53;57.11;99835.47;5065782;28;8843;-79
2022/09/06 05:16:59;;;;;;;;;42.00;36.25;;;;;23.66;56.88;99838.38;5050115;28;9738;-80
2022/09/06 05:19:29;;;;;;;;;39.75;35.50;;;;;23.79;56.97;99841.34;5067123;28;8847;-80
2022/09/06 05:21:57;;;;;;;;;42.00;35.75;;;;;23.98;56.72;99838.59;5078955;28;8855;-79
2022/09/06 05:24:26;;;;;;;;;40.00;36.00;;;;;24.15;56.02;99843.91;5088410;28;9605;-79
2022/09/06 05:26:54;;;;;;;;;40.50;36.00;;;;;24.30;55.94;99844.91;5089124;28;8844;-79
2022/09/06 05:29:23;;;;;;;;;44.75;36.50;;;;;24.36;55.65;99844.59;5088095;28;8860;-79
2022/09/06 05:31:57;;;;;;;;;39.75;36.25;;;;;24.48;55.94;99853.72;5084841;28;8839;-81
2022/09/06 05:34:26;;;;;;;;;37.25;34.25;;;;;24.44;54.97;99850.38;5067111;28;8846;-80
2022/09/06 05:36:56;;;;;;;;;42.00;36.00;;;;;24.52;54.52;99855.34;5082225;28;8848;-79
2022/09/06 05:39:25;;;;;;;;;38.25;35.25;;;;;24.40;54.61;99859.47;5067497;28;9628;-78
2022/09/06 05:41:54;;;;;;;;;39.25;34.75;;;;;24.25;55.43;99852.28;5031074;28;8843;-80
2022/09/06 05:44:22;;;;;;;;;42.25;36.25;;;;;24.32;55.38;99859.03;5063470;28;9010;-80
2022/09/06 05:46:52;;;;;;;;;39.50;35.00;;;;;24.42;55.07;99854.06;5048717;28;8901;-79
2022/09/06 05:49:20;;;;;;;;;42.50;35.25;;;;;24.57;54.60;99855.09;5067829;28;8936;-80
2022/09/06 05:51:51;;;;;;;;;33.80;31.80;;;;;24.68;54.60;99850.88;5067829;28;8963;-77
2022/09/06 05:54:21;;;;;;;;;31.20;30.20;;;;;24.80;53.89;99849.38;5086418;28;8878;-79
2022/09/06 05:56:50;;;;;;;;;36.00;34.00;;;;;24.76;53.66;99852.28;5089168;28;8871;-80
2022/09/06 05:59:18;;;;;;;;;31.40;30.00;;;;;24.83;53.37;99857.19;5090813;28;8924;-80
2022/09/06 06:01:49;;;;;;;;;38.00;34.50;;;;;24.80;53.83;99857.38;5090174;28;9514;-78
2022/09/06 06:04:18;;;;;;;;;33.60;30.80;;;;;24.83;53.62;99862.53;5091520;28;8974;-81
2022/09/06 06:06:47;;;;;;;;;33.50;31.50;;;;;25.03;53.56;99852.59;5092771;28;8936;-81
2022/09/06 06:09:17;;;;;;;;;34.00;31.75;;;;;25.24;53.46;99851.41;5083897;28;8934;-80
2022/09/06 06:11:47;;;;;;;;;41.00;34.50;;;;;25.43;52.63;99853.91;5088641;28;8877;-67
2022/09/06 06:14:15;;;;;;;;;39.00;35.75;;;;;25.48;52.78;99853.63;5090811;28;8881;-69
2022/09/06 06:16:44;;;;;;;;;35.75;32.50;;;;;25.67;52.17;99854.28;5090884;28;8858;-69
2022/09/06 06:19:14;;;;;;;;;39.00;34.50;;;;;25.85;51.96;99851.47;5087815;28;8846;-68
2022/09/06 06:21:42;;;;;;;;;39.50;35.00;;;;;25.97;51.98;99848.09;5073428;28;8852;-69
2022/09/06 06:24:11;;;;;;;;;31.75;31.00;;;;;26.12;51.86;99845.47;5067741;28;8843;-72
2022/09/06 06:26:39;;;;;;;;;39.25;35.00;;;;;26.25;51.24;99844.63;5066207;28;8882;-68
2022/09/06 06:29:09;;;;;;;;;39.75;35.50;;;;;26.44;51.33;99847.03;5067648;28;8864;-70
2022/09/06 06:31:38;;;;;;;;;45.25;37.25;;;;;26.50;51.15;99844.94;5067366;28;8844;-66
2022/09/06 06:34:08;;;;;;;;;41.00;36.50;;;;;26.65;50.22;99852.03;5084221;28;8958;-69
2022/09/06 06:36:36;;;;;;;;;33.80;29.60;;;;;26.76;48.96;99852.22;5078450;28;8881;-67
2022/09/06 06:39:07;;;;;;;;;36.50;32.75;;;;;26.92;48.85;99849.47;5087599;28;8853;-69
2022/09/06 06:41:36;;;;;;;;;44.25;35.25;;;;;27.04;49.36;99850.50;5068538;28;8865;-68
2022/09/06 06:44:26;;;;;;;;;40.50;34.00;;;;;27.15;49.28;99849.81;5033909;28;8852;-69
2022/09/06 06:46:56;;;;;;;;;38.00;34.00;;;;;27.30;48.94;99851.53;5079026;28;8893;-67
2022/09/06 06:49:25;;;;;;;;;39.00;32.75;;;;;27.37;48.75;99844.81;5087273;28;8842;-70
2022/09/06 06:51:53;;;;;;;;;33.00;32.00;;;;;27.47;48.33;99850.41;5089115;28;8847;-65
2022/09/06 06:54:22;;;;;;;;;38.75;33.50;;;;;27.56;48.17;99846.25;5088293;28;8875;-66
2022/09/06 06:56:50;;;;;;;;;39.50;35.25;;;;;27.68;48.00;99850.81;5088620;28;8881;-67
2022/09/06 06:59:19;;;;;;;;;37.25;33.25;;;;;27.80;47.74;99843.75;5085837;28;8844;-68
2022/09/06 07:01:49;;;;;;;;;39.00;33.75;;;;;27.93;47.73;99849.19;5077697;28;8847;-65
2022/09/06 07:04:18;;;;;;;;;31.50;30.50;;;;;28.05;47.20;99851.00;5084156;28;8874;-74
2022/09/06 07:06:49;;;;;;;;;31.75;30.25;;;;;28.09;47.18;99854.34;5081015;28;8874;-74
2022/09/06 07:09:38;;;;;;;;;32.75;31.00;;;;;28.18;46.49;99856.41;5085932;28;8963;-76
2022/09/06 07:12:26;;;;;;;;;32.25;30.75;;;;;28.31;46.17;99859.94;5052678;28;9726;-77
2022/09/06 07:14:55;;;;;;;;;33.75;30.75;;;;;28.42;45.94;99858.34;5102302;27;8847;-78
2022/09/06 07:17:25;;;;;;;;;33.60;31.00;;;;;28.53;45.61;99859.34;5075297;28;8868;-75
2022/09/06 07:19:53;;;;;;;;;26.80;24.80;;;;;28.56;44.68;99864.50;5091265;28;8878;-77
2022/09/06 07:22:42;;;;;;;;;24.80;24.20;;;;;28.62;43.74;99865.03;5091789;28;8885;-76
2022/09/06 07:25:14;;;;;;;;;25.00;24.00;;;;;28.75;43.63;99861.38;5090026;28;8895;-75
2022/09/06 07:27:49;;;;;;;;;23.60;21.60;;;;;28.81;42.96;99853.84;5087774;28;8840;-77
2022/09/06 07:30:19;;;;;;;;;23.00;19.80;;;;;28.89;42.03;99860.38;5077195;28;8862;-72
2022/09/06 07:32:49;;;;;;;;;28.60;27.20;;;;;28.98;42.44;99858.88;5085030;28;8850;-69
2022/09/06 07:35:19;;;;;;;;;22.80;22.80;;;;;29.01;41.93;99860.47;5070491;28;8846;-62
2022/09/06 07:37:55;;;;;;;;;23.40;21.20;;;;;29.07;41.25;99858.16;5088996;28;8867;-67
2022/09/06 07:40:24;;;;;;;;;26.80;24.20;;;;;29.13;41.43;99860.47;5073275;28;8831;-77
2022/09/06 07:42:53;;;;;;;;;25.40;22.80;;;;;29.24;41.13;99859.66;5079660;28;8844;-75
2022/09/06 07:45:21;;;;;;;;;23.60;22.00;;;;;29.15;41.10;99861.22;5069401;28;8854;-76
2022/09/06 07:47:57;;;;;;;;;20.60;19.40;;;;;29.39;41.18;99862.19;5084814;28;8851;-78
2022/09/06 07:50:27;;;;;;;;;22.80;21.80;;;;;29.42;40.67;99860.16;5086803;28;8882;-78
2022/09/06 07:53:16;;;;;;;;;23.00;23.00;;;;;29.56;40.24;99861.78;5071741;28;8828;-76
2022/09/06 07:55:59;;;;;;;;;21.60;20.80;;;;;29.63;39.78;99859.53;5085382;28;8903;-76
2022/09/06 07:58:29;;;;;;;;;23.60;22.20;;;;;29.68;40.19;99868.97;5055703;28;8903;-76
2022/09/06 08:01:16;;;;;;;;;24.20;23.80;;;;;29.83;39.22;99866.97;5080962;28;8864;-74
2022/09/06 08:03:47;;;;;;;;;23.60;23.00;;;;;29.62;39.84;99871.22;5071730;28;8848;-75
2022/09/06 08:06:16;;;;;;;;;25.40;23.00;;;;;29.76;39.97;99876.47;5015198;28;8866;-74
2022/09/06 08:08:44;;;;;;;;;24.20;22.60;;;;;29.81;39.63;99873.44;5043334;28;9111;-74
2022/09/06 08:11:31;;;;;;;;;25.60;23.60;;;;;29.86;39.08;99868.56;5067796;28;8843;-77
2022/09/06 08:14:01;;;;;;;;;24.60;24.60;;;;;29.81;39.70;99871.63;5066461;28;8872;-77
2022/09/06 08:16:31;;;;;;;;;22.60;22.40;;;;;29.67;39.40;99869.91;5066484;28;9659;-76
2022/09/06 08:19:03;;;;;;;;;21.60;21.40;;;;;29.72;38.84;99872.28;5066381;28;8971;-74
2022/09/06 08:21:33;;;;;;;;;21.20;19.80;;;;;29.82;38.24;99876.00;5068758;28;8856;-75
2022/09/06 08:24:04;;;;;;;;;21.60;21.60;;;;;29.92;38.68;99868.97;5061977;28;8935;-81
2022/09/06 08:26:35;;;;;;;;;24.40;23.20;;;;;29.91;38.23;99867.25;5065125;28;8998;-77
2022/09/06 08:29:06;;;;;;;;;19.60;19.60;;;;;29.97;37.58;99868.59;5066107;28;9589;-79
2022/09/06 08:31:36;;;;;;;;;18.80;18.40;;;;;30.04;37.68;99858.22;5062064;28;8931;-78
2022/09/06 08:34:07;;;;;;;;;23.40;22.20;;;;;30.11;38.15;99864.84;5087740;28;8981;-79
2022/09/06 08:36:36;;;;;;;;;21.00;21.00;;;;;30.15;38.20;99854.72;5050063;28;8981;-76
2022/09/06 08:39:07;;;;;;;;;20.80;20.60;;;;;30.06;37.53;99859.84;5054767;28;8886;-76
2022/09/06 08:41:46;;;;;;;;;18.60;18.60;;;;;30.09;38.04;99862.28;5087836;28;8863;-74
2022/09/06 08:44:19;;;;;;;;;21.40;20.60;;;;;30.04;38.56;99860.91;5070175;28;8864;-79
2022/09/06 08:47:09;;;;;;;;;21.20;19.20;;;;;30.05;37.12;99854.56;5068443;28;8858;-76
2022/09/06 08:49:43;;;;;;;;;19.00;17.80;;;;;30.17;37.26;99850.06;5069296;28;8957;-77
2022/09/06 08:52:25;;;;;;;;;20.20;17.20;;;;;30.23;37.30;99850.47;5085708;28;8846;-80
2022/09/06 08:55:02;;;;;;;;;17.00;15.60;;;;;30.18;36.90;99844.56;5068767;28;8850;-77
2022/09/06 08:57:50;;;;;;;;;19.60;18.60;;;;;30.17;37.68;99845.56;5085516;28;8854;-75
2022/09/06 09:00:20;;;;;;;;;18.40;18.40;;;;;30.19;36.82;99843.63;5085401;28;8944;-79
2022/09/06 09:02:52;;;;;;;;;16.40;16.40;;;;;30.18;36.27;99847.25;5068694;28;9044;-78
2022/09/06 09:05:27;;;;;;;;;13.20;13.00;;;;;30.31;37.31;99842.63;5085224;28;9026;-77
2022/09/06 09:08:05;;;;;;;;;17.80;16.80;;;;;30.31;37.36;99841.78;5084894;28;8865;-79
2022/09/06 09:10:42;;;;;;;;;16.80;14.60;;;;;30.36;36.77;99842.31;5085538;28;8865;-77
2022/09/06 09:13:27;;;;;;;;;18.00;16.80;;;;;30.30;36.32;99842.75;5067757;28;8877;-77
2022/09/06 09:15:57;;;;;;;;;18.00;18.00;;;;;30.25;36.46;99842.28;5083754;28;8976;-79
2022/09/06 09:18:30;;;;;;;;;21.60;20.60;;;;;30.39;36.37;99835.84;5085944;28;8862;-75
2022/09/06 09:21:00;;;;;;;;;18.80;18.80;;;;;30.33;36.63;99841.72;5068735;28;8858;-77
2022/09/06 09:23:29;;;;;;;;;19.80;18.60;;;;;30.28;36.64;99836.63;5082013;28;8937;-80
2022/09/06 09:26:05;;;;;;;;;16.80;16.80;;;;;30.33;36.06;99836.31;5076136;28;8947;-77
2022/09/06 09:28:34;;;;;;;;;16.60;16.40;;;;;30.29;35.61;99831.13;5082953;28;8858;-77
2022/09/06 09:31:03;;;;;;;;;18.20;17.20;;;;;30.31;35.95;99831.03;5045978;28;8884;-75
2022/09/06 09:33:37;;;;;;;;;18.20;17.80;;;;;30.32;36.06;99838.13;5070786;28;8878;-76
2022/09/06 09:36:12;;;;;;;;;19.40;18.40;;;;;30.31;35.69;99833.72;5096851;28;8951;-77
2022/09/06 09:38:44;;;;;;;;;20.40;20.00;;;;;30.37;36.08;99832.41;5095583;28;8847;-75
2022/09/06 09:41:27;;;;;;;;;18.00;18.00;;;;;30.46;35.62;99832.53;5093666;28;8836;-76
2022/09/06 09:43:58;;;;;;;;;24.40;22.80;;;;;30.40;35.30;99833.03;5092973;28;8843;-76
2022/09/06 09:46:32;;;;;;;;;22.20;22.20;;;;;30.46;35.60;99835.22;5122805;27;8894;-75
2022/09/06 09:49:05;;;;;;;;;23.80;22.60;;;;;30.61;35.79;99829.63;5080116;28;9022;-74
2022/09/06 09:51:36;;;;;;;;;21.80;21.80;;;;;30.67;35.46;99823.72;5090055;28;8928;-75
2022/09/06 09:54:07;;;;;;;;;20.80;20.80;;;;;30.63;35.78;99823.13;5085635;28;8939;-78
2022/09/06 09:56:42;;;;;;;;;21.80;21.40;;;;;30.71;35.40;99826.03;5091561;28;8854;-79
2022/09/06 09:59:21;;;;;;;;;21.20;21.20;;;;;30.84;35.48;99814.28;5102608;28;8910;-78
2022/09/06 10:01:54;;;;;;;;;24.20;24.00;;;;;30.79;35.03;99821.88;5091925;28;8977;-75
2022/09/06 10:04:29;;;;;;;;;22.40;22.40;;;;;30.85;35.22;99814.19;5088283;28;9605;-77
2022/09/06 10:07:17;;;;;;;;;25.00;23.60;;;;;30.92;34.87;99811.00;5085437;28;8867;-79
2022/09/06 10:09:47;;;;;;;;;21.80;21.20;;;;;30.94;34.67;99806.34;5090339;28;8859;-77
2022/09/06 10:12:18;;;;;;;;;21.60;21.60;;;;;30.95;34.55;99808.94;5087955;28;8843;-78
2022/09/06 10:14:47;;;;;;;;;16.60;14.60;;;;;31.02;34.38;99802.06;5082376;28;8873;-75
2022/09/06 10:17:27;;;;;;;;;24.60;24.00;;;;;31.09;34.20;99807.78;5104668;28;8948;-76
2022/09/06 10:19:56;;;;;;;;;24.20;23.80;;;;;31.17;34.42;99804.47;5090806;28;8879;-79
2022/09/06 10:22:29;;;;;;;;;22.20;21.20;;;;;31.18;33.92;99808.88;5086297;28;8933;-76
2022/09/06 10:25:33;;;;;;;;;25.00;24.20;;;;;31.18;34.09;99804.34;5071326;28;8874;-78
2022/09/06 10:28:31;;;;;;;;;25.00;25.00;;;;;31.31;33.83;99798.78;5071228;28;8882;-75
2022/09/06 10:31:25;;;;;;;;;22.20;21.40;;;;;31.32;33.76;99795.09;5071123;28;8882;-75
2022/09/06 10:34:06;;;;;;;;;19.80;17.40;;;;;31.37;33.42;99790.19;5070838;28;8858;-78
2022/09/06 10:36:37;;;;;;;;;20.00;20.00;;;;;31.35;33.66;99802.09;5069620;28;8896;-79
2022/09/06 10:39:23;;;;;;;;;25.25;24.25;;;;;31.45;34.01;99790.38;5068731;28;8878;-78
2022/09/06 10:42:09;;;;;;;;;25.00;24.75;;;;;31.54;34.04;99791.50;5083446;28;8890;-78
2022/09/06 10:44:51;;;;;;;;;24.20;24.20;;;;;31.26;33.68;99788.38;5087277;28;8869;-78
2022/09/06 10:47:23;;;;;;;;;25.25;25.25;;;;;31.43;34.12;99780.72;5079161;28;8878;-79
2022/09/06 10:49:57;;;;;;;;;29.00;29.00;;;;;31.53;33.64;99773.63;5084164;28;8861;-77
2022/09/06 10:52:34;;;;;;;;;26.50;26.50;;;;;31.69;33.33;99772.31;5079605;28;8842;-77
2022/09/06 10:55:09;;;;;;;;;25.00;24.40;;;;;31.75;33.22;99780.72;5068088;28;8838;-76
2022/09/06 10:57:45;;;;;;;;;23.75;21.75;;;;;31.83;33.18;99783.66;5091856;28;8860;-78
2022/09/06 11:00:39;;;;;;;;;24.80;23.40;;;;;31.87;32.20;99770.72;5071829;28;8854;-77
2022/09/06 11:03:14;;;;;;;;;25.25;24.00;;;;;31.86;33.14;99779.81;5088722;28;8856;-76
2022/09/06 11:06:07;;;;;;;;;27.25;26.25;;;;;32.10;32.33;99776.88;5087285;28;8839;-64
2022/09/06 11:08:42;;;;;;;;;21.75;21.75;;;;;32.36;31.52;99776.41;5104360;27;8855;-63
2022/09/06 11:11:21;;;;;;;;;23.20;22.80;;;;;32.55;31.92;99781.03;5087708;28;8848;-66
2022/09/06 11:13:50;;;;;;;;;26.25;24.75;;;;;32.75;31.36;99779.31;5069063;28;8830;-65
2022/09/06 11:16:23;;;;;;;;;20.00;18.00;;;;;32.87;30.68;99771.94;5068902;28;8834;-66
2022/09/06 11:18:59;;;;;;;;;23.00;22.00;;;;;32.98;30.16;99774.53;5069475;28;8882;-64
2022/09/06 11:21:47;;;;;;;;;23.50;23.50;;;;;33.21;31.05;99767.91;5068769;28;8830;-64
2022/09/06 11:24:22;;;;;;;;;27.00;26.25;;;;;33.20;30.62;99768.06;5069002;28;8854;-64
2022/09/06 11:27:04;;;;;;;;;27.50;26.25;;;;;33.43;31.13;99779.44;5068985;28;8856;-63
2022/09/06 11:29:34;;;;;;;;;30.25;29.00;;;;;33.51;29.99;99779.56;5068207;28;8850;-64
2022/09/06 11:32:25;;;;;;;;;23.25;20.50;;;;;33.70;29.58;99765.22;5070949;28;8838;-66
2022/09/06 11:34:56;;;;;;;;;24.00;24.00;;;;;33.87;29.52;99760.91;5077048;28;8858;-66
2022/09/06 11:37:27;;;;;;;;;21.00;20.75;;;;;34.10;28.66;99758.72;5080866;28;8871;-64
2022/09/06 11:40:13;;;;;;;;;22.50;22.50;;;;;34.38;28.34;99756.06;5078430;28;8870;-64
2022/09/06 11:43:18;;;;;;;;;22.50;21.25;;;;;34.69;28.09;99753.97;5080858;28;8864;-62
2022/09/06 11:45:49;;;;;;;;;21.00;20.80;;;;;34.87;27.92;99751.28;5088460;28;9748;-64
2022/09/06 11:48:34;;;;;;;;;18.00;17.00;;;;;35.13;27.35;99756.81;5084706;28;8858;-65
2022/09/06 11:51:09;;;;;;;;;25.00;24.25;;;;;35.32;26.56;99750.41;5088108;28;8852;-66